Time;durP1;ratioP1;P1;durP2;ratioP2;P2;SDS_P1;SDS_P2;PMS_P1;PMS_P2;Temp;Humidity;BMP_temperature;BMP_pressure;BME280_temperature;BME280_humidity;BME280_pressure;Samples;Min_cycle;Max_cycle;Signal;HPM_P1;HPM_P2
2021/07/09 00:02:06;;;;;;;6.45;3.17;;;17.70;99.90;;;;;;5067288;28;20554;-81
2021/07/09 00:04:32;;;;;;;6.93;3.70;;;17.80;99.90;;;;;;5083736;28;20183;-81
2021/07/09 00:06:58;;;;;;;3.30;3.10;;;17.80;99.90;;;;;;5068967;28;20182;-81
2021/07/09 00:09:25;;;;;;;6.40;3.63;;;17.80;99.90;;;;;;5065188;28;20170;-81
2021/07/09 00:11:53;;;;;;;5.20;3.47;;;17.80;99.90;;;;;;5075146;28;20174;-80
2021/07/09 00:14:25;;;;;;;4.38;4.05;;;17.90;99.90;;;;;;5083314;28;20228;-81
2021/07/09 00:16:51;;;;;;;4.82;3.83;;;17.90;99.90;;;;;;5055106;28;20216;-81
2021/07/09 00:19:17;;;;;;;6.13;3.63;;;18.00;99.90;;;;;;5043935;28;20202;-81
2021/07/09 00:21:42;;;;;;;4.13;3.83;;;18.00;99.90;;;;;;5077056;28;20166;-81
2021/07/09 00:24:09;;;;;;;4.07;3.78;;;18.10;99.90;;;;;;5084503;28;20370;-81
2021/07/09 00:26:35;;;;;;;4.53;4.13;;;18.10;99.90;;;;;;5062178;28;20174;-80
2021/07/09 00:29:02;;;;;;;9.63;4.20;;;18.00;99.90;;;;;;5076336;28;20217;-81
2021/07/09 00:31:30;;;;;;;5.90;3.50;;;18.00;99.90;;;;;;5084308;28;20206;-81
2021/07/09 00:33:56;;;;;;;4.55;4.15;;;17.90;99.90;;;;;;5042966;28;20166;-81
2021/07/09 00:36:22;;;;;;;4.57;4.18;;;17.70;99.90;;;;;;5083654;28;20239;-81
2021/07/09 00:38:48;;;;;;;5.65;4.43;;;17.50;99.90;;;;;;5077934;28;20197;-81
2021/07/09 00:41:14;;;;;;;5.00;4.60;;;17.60;99.90;;;;;;5096957;28;20166;-81
2021/07/09 00:43:40;;;;;;;7.30;5.25;;;17.60;99.90;;;;;;5074243;28;20289;-82
2021/07/09 00:46:07;;;;;;;7.10;4.97;;;17.60;99.90;;;;;;5058826;28;20261;-81
2021/07/09 00:48:32;;;;;;;5.68;5.10;;;17.60;99.90;;;;;;5082694;28;20186;-81
2021/07/09 00:51:00;;;;;;;6.07;5.68;;;17.60;99.90;;;;;;5044802;28;20178;-81
2021/07/09 00:53:26;;;;;;;6.20;5.68;;;17.70;99.90;;;;;;5078415;28;20183;-81
2021/07/09 00:55:52;;;;;;;12.95;5.20;;;17.70;99.90;;;;;;5096735;28;20623;-81
2021/07/09 00:58:18;;;;;;;8.57;6.28;;;17.60;99.90;;;;;;5076446;28;20789;-82
2021/07/09 01:00:43;;;;;;;5.60;5.20;;;17.60;99.90;;;;;;5028175;28;20721;-81
2021/07/09 01:03:09;;;;;;;5.15;4.75;;;17.50;99.90;;;;;;5076057;28;20186;-88
2021/07/09 01:05:35;;;;;;;5.75;5.22;;;17.40;99.90;;;;;;5043985;28;20523;-81
2021/07/09 01:08:03;;;;;;;6.22;5.70;;;17.40;99.90;;;;;;5058300;28;20224;-80
2021/07/09 01:10:29;;;;;;;6.07;5.57;;;17.30;99.90;;;;;;5041664;28;20179;-80
2021/07/09 01:12:55;;;;;;;6.95;5.45;;;17.30;99.90;;;;;;5058074;28;20179;-81
2021/07/09 01:15:22;;;;;;;5.85;5.45;;;17.30;99.90;;;;;;5076134;28;20274;-80
2021/07/09 01:17:49;;;;;;;6.28;5.60;;;17.20;99.90;;;;;;5041972;28;20220;-81
2021/07/09 01:20:17;;;;;;;7.60;6.47;;;17.10;99.90;;;;;;5075693;28;20175;-81
2021/07/09 01:22:48;;;;;;;7.43;6.68;;;17.10;99.90;;;;;;5058601;28;20171;-82
2021/07/09 01:25:34;;;;;;;8.73;7.25;;;17.10;99.90;;;;;;5079933;28;20170;-81
2021/07/09 01:28:06;;;;;;;6.72;6.22;;;17.10;99.90;;;;;;5068179;28;20205;-81
2021/07/09 01:30:33;;;;;;;7.53;7.03;;;17.10;99.90;;;;;;5082089;28;20186;-81
2021/07/09 01:32:59;;;;;;;7.28;6.65;;;17.10;99.90;;;;;;5077290;28;20761;-81
2021/07/09 01:35:27;;;;;;;6.97;6.35;;;17.10;99.90;;;;;;5093856;28;20170;-81
2021/07/09 01:38:00;;;;;;;7.00;6.50;;;17.00;99.90;;;;;;5075674;28;20273;-81
2021/07/09 01:40:26;;;;;;;7.03;6.53;;;17.00;99.90;;;;;;5058713;28;20163;-81
2021/07/09 01:42:53;;;;;;;8.48;7.05;;;17.00;99.90;;;;;;5077233;28;20170;-83
2021/07/09 01:45:19;;;;;;;10.50;7.18;;;17.10;99.90;;;;;;5075127;28;20291;-80
2021/07/09 01:47:45;;;;;;;7.72;6.90;;;17.00;99.90;;;;;;5067854;28;20178;-82
2021/07/09 01:50:11;;;;;;;7.30;6.72;;;17.00;99.90;;;;;;5078383;28;20620;-80
2021/07/09 01:52:36;;;;;;;7.55;6.88;;;17.00;99.90;;;;;;5043676;28;20179;-80
2021/07/09 01:55:04;;;;;;;7.55;6.60;;;16.90;99.90;;;;;;5076784;28;20704;-80
2021/07/09 01:57:30;;;;;;;6.72;6.20;;;16.90;99.90;;;;;;5095745;28;20201;-81
2021/07/09 01:59:58;;;;;;;10.23;6.50;;;16.80;99.90;;;;;;5062283;28;20190;-82
2021/07/09 02:02:24;;;;;;;7.55;6.95;;;16.70;99.90;;;;;;5083428;28;20179;-81
2021/07/09 02:04:55;;;;;;;7.30;6.60;;;16.70;99.90;;;;;;5089450;28;20542;-81
2021/07/09 02:07:23;;;;;;;8.27;7.47;;;16.80;99.90;;;;;;5077442;28;20678;-81
2021/07/09 02:09:51;;;;;;;7.28;6.68;;;16.70;99.90;;;;;;5088215;28;20179;-80
2021/07/09 02:12:19;;;;;;;8.50;6.63;;;16.70;99.90;;;;;;5040485;28;20183;-80
2021/07/09 02:14:46;;;;;;;7.25;6.55;;;16.70;99.90;;;;;;5059341;28;20175;-81
2021/07/09 02:17:15;;;;;;;7.32;6.72;;;16.80;99.90;;;;;;5076221;28;20178;-81
2021/07/09 02:19:41;;;;;;;8.25;7.43;;;16.90;99.90;;;;;;5084001;28;20235;-80
2021/07/09 02:22:09;;;;;;;12.07;8.15;;;17.00;99.90;;;;;;5074534;28;20316;-81
2021/07/09 02:24:36;;;;;;;14.82;8.43;;;17.10;99.90;;;;;;5067907;28;20276;-81
2021/07/09 02:27:04;;;;;;;9.65;8.55;;;17.10;99.90;;;;;;5077143;28;20178;-81
2021/07/09 02:29:30;;;;;;;8.98;8.18;;;17.30;99.90;;;;;;5064897;28;20246;-81
2021/07/09 02:31:56;;;;;;;14.43;8.60;;;17.30;99.90;;;;;;5056776;28;20186;-81
2021/07/09 02:34:22;;;;;;;11.48;8.68;;;17.30;99.90;;;;;;5074546;28;20170;-80
2021/07/09 02:36:47;;;;;;;13.27;8.02;;;17.30;99.90;;;;;;5056704;28;20187;-81
2021/07/09 02:39:13;;;;;;;12.13;8.55;;;17.20;99.90;;;;;;5059954;28;20254;-81
2021/07/09 02:41:39;;;;;;;13.90;9.52;;;17.20;99.90;;;;;;5064437;28;20639;-81
2021/07/09 02:44:05;;;;;;;13.15;8.60;;;17.20;99.90;;;;;;5056933;28;20198;-80
2021/07/09 02:46:31;;;;;;;11.18;7.45;;;17.10;99.90;;;;;;5074392;28;20265;-81
2021/07/09 02:48:56;;;;;;;9.35;7.75;;;17.00;99.90;;;;;;5046182;28;20277;-81
2021/07/09 02:51:22;;;;;;;7.38;6.80;;;16.80;99.90;;;;;;5075379;28;20165;-81
2021/07/09 02:53:48;;;;;;;7.78;7.03;;;16.80;99.90;;;;;;5090699;28;20178;-81
2021/07/09 02:56:13;;;;;;;7.10;6.50;;;16.80;99.90;;;;;;5094615;28;20658;-80
2021/07/09 02:58:39;;;;;;;8.93;6.53;;;16.60;99.90;;;;;;5050884;28;20706;-80
2021/07/09 03:01:05;;;;;;;6.65;6.15;;;16.50;99.90;;;;;;5081035;28;20548;-81
2021/07/09 03:03:30;;;;;;;9.63;6.97;;;16.50;99.90;;;;;;5065473;28;20182;-81
2021/07/09 03:05:56;;;;;;;12.35;7.63;;;16.60;99.90;;;;;;5056167;28;20676;-81
2021/07/09 03:08:22;;;;;;;9.85;7.30;;;16.70;99.90;;;;;;5061934;28;20182;-81
2021/07/09 03:10:47;;;;;;;8.60;7.80;;;16.90;99.90;;;;;;5073578;28;20174;-80
2021/07/09 03:13:13;;;;;;;9.77;8.77;;;17.10;99.90;;;;;;5022837;28;20526;-80
2021/07/09 03:15:39;;;;;;;10.60;8.93;;;17.20;99.90;;;;;;5056177;28;20175;-81
2021/07/09 03:18:05;;;;;;;11.00;9.05;;;17.20;99.90;;;;;;5055938;28;20647;-81
2021/07/09 03:20:30;;;;;;;16.30;8.88;;;17.30;99.90;;;;;;5055712;28;20178;-81
2021/07/09 03:22:56;;;;;;;9.40;6.57;;;17.40;99.90;;;;;;5058018;28;20255;-81
2021/07/09 03:25:22;;;;;;;10.23;8.32;;;17.40;99.90;;;;;;5081218;28;20174;-82
2021/07/09 03:27:47;;;;;;;9.85;8.77;;;17.50;99.90;;;;;;5058971;28;20220;-81
2021/07/09 03:30:14;;;;;;;8.98;7.85;;;17.60;99.90;;;;;;5064832;28;20658;-81
2021/07/09 03:32:39;;;;;;;18.45;9.63;;;17.60;99.90;;;;;;5057988;28;20620;-81
2021/07/09 03:35:07;;;;;;;14.25;8.15;;;17.60;99.90;;;;;;5092519;28;20182;-81
2021/07/09 03:37:32;;;;;;;10.57;9.23;;;17.70;99.90;;;;;;5059108;28;20194;-81
2021/07/09 03:39:58;;;;;;;18.58;9.93;;;17.70;99.90;;;;;;5078061;28;20660;-81
2021/07/09 03:42:23;;;;;;;17.08;9.23;;;17.70;99.90;;;;;;5055457;28;20167;-81
2021/07/09 03:44:49;;;;;;;16.13;9.20;;;17.80;99.90;;;;;;5055803;28;20190;-81
2021/07/09 03:47:15;;;;;;;15.65;10.43;;;17.90;99.90;;;;;;5055775;28;20167;-81
2021/07/09 03:49:41;;;;;;;14.55;10.13;;;17.90;99.90;;;;;;5083546;28;20197;-80
2021/07/09 03:52:06;;;;;;;16.35;9.90;;;17.90;99.90;;;;;;5055078;28;20174;-80
2021/07/09 03:54:33;;;;;;;10.68;9.55;;;17.80;99.90;;;;;;5073719;28;20228;-81
2021/07/09 03:56:59;;;;;;;14.05;10.15;;;17.80;99.90;;;;;;5055300;28;20233;-82
2021/07/09 03:59:24;;;;;;;10.20;8.52;;;17.80;99.90;;;;;;5050837;28;20671;-81
2021/07/09 04:01:50;;;;;;;18.23;9.15;;;17.80;99.90;;;;;;5045284;28;20218;-81
2021/07/09 04:04:15;;;;;;;16.17;8.70;;;17.80;99.90;;;;;;5088523;28;20178;-81
2021/07/09 04:06:41;;;;;;;20.95;10.70;;;17.80;99.90;;;;;;5093656;28;20174;-81
2021/07/09 04:09:07;;;;;;;11.70;9.35;;;17.80;99.90;;;;;;5074876;28;20658;-81
2021/07/09 04:11:32;;;;;;;13.10;9.65;;;17.80;99.90;;;;;;5093649;28;20181;-81
2021/07/09 04:13:58;;;;;;;11.55;9.55;;;17.80;99.90;;;;;;5085391;28;20178;-81
2021/07/09 04:16:23;;;;;;;16.23;9.15;;;17.90;99.90;;;;;;5084263;28;20181;-81
2021/07/09 04:18:49;;;;;;;12.93;9.18;;;17.90;99.90;;;;;;5087270;28;20218;-80
2021/07/09 04:21:15;;;;;;;13.23;9.98;;;17.90;99.90;;;;;;5058264;28;20273;-81
2021/07/09 04:23:40;;;;;;;15.77;9.10;;;18.00;99.90;;;;;;5067162;28;20693;-81
2021/07/09 04:26:06;;;;;;;11.38;8.95;;;17.90;99.90;;;;;;5072849;28;20213;-81
2021/07/09 04:28:32;;;;;;;10.57;9.07;;;17.80;99.90;;;;;;5055192;28;20182;-81
2021/07/09 04:30:58;;;;;;;13.65;8.90;;;17.80;99.90;;;;;;5049816;28;20549;-81
2021/07/09 04:33:23;;;;;;;14.43;8.73;;;17.80;99.90;;;;;;5061782;28;20178;-81
2021/07/09 04:35:52;;;;;;;17.60;9.70;;;17.80;99.90;;;;;;5078516;28;20665;-82
2021/07/09 04:38:18;;;;;;;17.00;8.88;;;17.80;99.90;;;;;;5054832;28;20297;-81
2021/07/09 04:40:44;;;;;;;11.20;8.85;;;17.70;99.90;;;;;;5054556;28;20266;-81
2021/07/09 04:43:10;;;;;;;11.98;9.00;;;17.70;99.90;;;;;;5072841;28;20253;-81
2021/07/09 04:45:36;;;;;;;16.80;8.93;;;17.70;99.90;;;;;;5073328;28;20258;-81
2021/07/09 04:48:01;;;;;;;13.50;9.20;;;17.70;99.90;;;;;;5072890;28;20321;-81
2021/07/09 04:50:27;;;;;;;13.20;9.80;;;17.80;99.90;;;;;;5088320;28;20202;-81
2021/07/09 04:52:53;;;;;;;13.13;8.85;;;18.00;99.90;;;;;;5070483;28;20201;-84
2021/07/09 04:55:18;;;;;;;9.43;8.43;;;18.30;99.90;;;;;;5071957;28;20251;-81
2021/07/09 04:57:44;;;;;;;15.93;8.80;;;18.60;99.90;;;;;;5073196;28;20218;-80
2021/07/09 05:00:10;;;;;;;19.50;8.30;;;19.00;99.90;;;;;;5070942;28;20175;-81
2021/07/09 05:02:37;;;;;;;7.60;6.88;;;19.40;99.90;;;;;;5054742;28;20186;-81
2021/07/09 05:05:06;;;;;;;10.25;7.38;;;19.60;99.90;;;;;;5054739;28;20191;-81
2021/07/09 05:07:31;;;;;;;10.43;7.13;;;19.80;99.90;;;;;;5056243;28;20181;-81
2021/07/09 05:09:57;;;;;;;17.30;7.30;;;19.80;99.90;;;;;;5086701;28;20175;-81
2021/07/09 05:12:23;;;;;;;20.40;7.43;;;19.80;99.90;;;;;;5041806;28;20616;-80
2021/07/09 05:14:48;;;;;;;10.95;7.68;;;19.80;99.90;;;;;;5057995;28;20182;-81
2021/07/09 05:17:14;;;;;;;9.10;8.00;;;19.70;99.90;;;;;;5057735;28;20633;-81
2021/07/09 05:19:39;;;;;;;12.80;7.97;;;19.70;99.90;;;;;;5068663;28;20190;-82
2021/07/09 05:22:06;;;;;;;11.35;7.40;;;19.70;99.90;;;;;;5096236;28;20173;-81
2021/07/09 05:24:31;;;;;;;11.13;7.50;;;19.90;99.90;;;;;;5077157;28;20174;-81
2021/07/09 05:26:57;;;;;;;8.40;7.22;;;20.50;99.90;;;;;;5072572;28;20252;-81
2021/07/09 05:29:23;;;;;;;7.07;6.38;;;21.20;99.90;;;;;;5041584;28;20300;-81
2021/07/09 05:31:49;;;;;;;8.80;6.10;;;22.00;99.90;;;;;;5072547;28;20182;-83
2021/07/09 05:34:14;;;;;;;7.80;5.47;;;22.90;99.90;;;;;;5053752;28;20213;-84
2021/07/09 05:36:40;;;;;;;8.60;6.13;;;23.70;99.90;;;;;;5024408;28;20183;-84
2021/07/09 05:39:06;;;;;;;8.57;6.50;;;24.50;99.90;;;;;;5057352;28;20193;-83
2021/07/09 05:41:32;;;;;;;7.75;6.03;;;25.40;99.90;;;;;;5057165;28;20182;-84
2021/07/09 05:43:57;;;;;;;7.50;5.88;;;26.20;99.90;;;;;;5058161;28;20670;-85
2021/07/09 05:46:23;;;;;;;7.28;5.40;;;26.90;99.90;;;;;;5057678;28;20617;-83
2021/07/09 05:48:49;;;;;;;8.43;5.80;;;27.40;99.90;;;;;;5062801;28;20553;-82
2021/07/09 05:51:14;;;;;;;8.68;5.57;;;28.00;99.90;;;;;;5044296;28;20176;-84
2021/07/09 05:53:40;;;;;;;6.43;5.82;;;28.60;99.90;;;;;;5060366;28;20162;-83
2021/07/09 05:56:06;;;;;;;9.02;6.28;;;28.90;99.90;;;;;;5077655;28;20543;-83
2021/07/09 05:58:31;;;;;;;6.35;5.70;;;29.10;99.90;;;;;;5057960;28;20218;-83
2021/07/09 06:00:57;;;;;;;8.25;6.78;;;29.20;99.90;;;;;;5055880;28;20285;-83
2021/07/09 06:03:22;;;;;;;15.48;6.47;;;29.50;99.90;;;;;;5085054;28;20178;-83
2021/07/09 06:05:48;;;;;;;8.52;6.43;;;29.90;99.90;;;;;;5060521;28;20166;-83
2021/07/09 06:08:14;;;;;;;9.70;6.22;;;30.40;99.90;;;;;;5073691;28;20185;-82
2021/07/09 06:10:39;;;;;;;8.13;6.45;;;31.00;99.90;;;;;;5061380;28;20635;-82
2021/07/09 06:13:05;;;;;;;15.80;6.63;;;31.40;99.90;;;;;;5043861;28;20208;-83
2021/07/09 06:15:32;;;;;;;11.10;7.10;;;30.60;99.90;;;;;;5057288;28;20179;-82
2021/07/09 06:17:58;;;;;;;6.53;5.88;;;30.70;99.90;;;;;;5056625;28;20198;-83
2021/07/09 06:20:24;;;;;;;7.55;6.60;;;30.50;99.90;;;;;;5092278;28;20263;-83
2021/07/09 06:22:49;;;;;;;9.55;7.07;;;30.90;99.90;;;;;;5076807;28;20208;-82
2021/07/09 06:25:16;;;;;;;9.75;7.75;;;31.70;99.90;;;;;;5094439;28;20235;-83
2021/07/09 06:27:42;;;;;;;7.70;6.65;;;32.10;99.90;;;;;;5075909;28;20638;-84
2021/07/09 06:30:08;;;;;;;9.48;7.32;;;32.20;99.90;;;;;;5074919;28;20271;-84
2021/07/09 06:32:34;;;;;;;8.82;7.40;;;31.00;99.90;;;;;;5066444;28;20183;-82
2021/07/09 06:35:00;;;;;;;10.68;7.80;;;29.30;99.90;;;;;;5059195;28;20193;-82
2021/07/09 06:37:25;;;;;;;12.10;7.45;;;29.20;99.90;;;;;;5059647;28;20180;-82
2021/07/09 06:39:51;;;;;;;7.75;7.13;;;29.20;99.90;;;;;;5073981;28;20213;-82
2021/07/09 06:42:17;;;;;;;11.70;7.28;;;29.40;99.90;;;;;;5076664;28;20174;-82
2021/07/09 06:44:43;;;;;;;10.52;7.55;;;28.80;99.90;;;;;;5080919;28;20265;-83
2021/07/09 06:47:09;;;;;;;8.90;6.93;;;27.50;99.90;;;;;;5090637;28;20540;-82
2021/07/09 06:49:34;;;;;;;7.32;5.88;;;27.80;99.90;;;;;;5039902;28;20182;-82
2021/07/09 06:52:00;;;;;;;8.82;6.90;;;29.00;99.90;;;;;;5057161;28;20544;-82
2021/07/09 06:54:26;;;;;;;13.90;6.50;;;29.60;99.90;;;;;;5084957;28;20185;-81
2021/07/09 06:56:51;;;;;;;8.20;6.53;;;28.00;99.90;;;;;;5091684;28;20186;-84
2021/07/09 06:59:17;;;;;;;8.35;6.72;;;26.20;99.90;;;;;;5084477;28;20209;-82
2021/07/09 07:01:43;;;;;;;7.47;6.72;;;24.80;99.90;;;;;;5075407;28;20167;-83
2021/07/09 07:04:09;;;;;;;10.75;6.95;;;24.00;99.90;;;;;;5054103;28;20710;-83
2021/07/09 07:06:36;;;;;;;8.30;7.57;;;24.20;99.90;;;;;;5032472;28;20178;-82
2021/07/09 07:09:02;;;;;;;11.63;7.40;;;24.90;99.90;;;;;;5043348;28;20170;-81
2021/07/09 07:11:28;;;;;;;13.73;7.88;;;25.10;99.90;;;;;;5076097;28;20189;-81
2021/07/09 07:13:54;;;;;;;9.25;7.82;;;24.90;99.90;;;;;;5059062;28;20174;-81
2021/07/09 07:16:19;;;;;;;10.95;7.78;;;24.50;99.90;;;;;;5073843;28;20273;-82
2021/07/09 07:18:45;;;;;;;10.32;7.95;;;23.90;99.90;;;;;;5077916;28;20682;-82
2021/07/09 07:21:10;;;;;;;14.93;8.52;;;23.60;99.90;;;;;;5066013;28;20281;-82
2021/07/09 07:23:36;;;;;;;13.15;8.27;;;23.20;99.90;;;;;;5045710;28;20175;-83
2021/07/09 07:26:02;;;;;;;12.90;7.97;;;22.80;99.90;;;;;;5074760;28;20648;-83
2021/07/09 07:28:28;;;;;;;9.50;8.55;;;22.70;99.90;;;;;;5068085;28;20538;-82
2021/07/09 07:30:54;;;;;;;9.38;8.48;;;22.60;99.90;;;;;;5058547;28;20166;-82
2021/07/09 07:33:19;;;;;;;10.93;9.70;;;22.00;99.90;;;;;;5045737;28;20189;-84
2021/07/09 07:35:45;;;;;;;16.27;9.77;;;21.70;99.90;;;;;;5050992;28;20178;-82
2021/07/09 07:38:11;;;;;;;14.85;9.38;;;21.30;99.90;;;;;;5057101;28;20210;-83
2021/07/09 07:40:37;;;;;;;8.50;7.70;;;21.40;99.90;;;;;;5059007;28;20197;-83
2021/07/09 07:43:04;;;;;;;8.07;7.53;;;23.80;99.90;;;;;;5073506;28;20333;-83
2021/07/09 07:45:31;;;;;;;9.10;7.05;;;25.90;99.90;;;;;;5055341;28;20181;-83
2021/07/09 07:47:56;;;;;;;8.00;7.35;;;28.20;99.90;;;;;;5041528;28;20175;-84
2021/07/09 07:50:22;;;;;;;7.20;6.60;;;29.70;99.90;;;;;;5058941;28;20174;-84
2021/07/09 07:52:49;;;;;;;6.18;5.47;;;30.40;99.90;;;;;;5055531;28;20528;-85
2021/07/09 07:55:15;;;;;;;7.05;6.35;;;31.00;99.90;;;;;;5073135;28;20632;-83
2021/07/09 07:57:41;;;;;;;6.60;6.05;;;31.70;99.90;;;;;;5073169;28;20676;-84
2021/07/09 08:00:09;;;;;;;7.57;6.55;;;31.90;99.90;;;;;;5080377;28;20190;-86
2021/07/09 08:02:35;;;;;;;7.63;6.82;;;31.80;99.90;;;;;;5093402;28;20189;-84
2021/07/09 08:05:00;;;;;;;7.43;6.75;;;30.70;99.90;;;;;;5058562;28;20623;-83
2021/07/09 08:07:26;;;;;;;8.93;6.85;;;29.60;99.90;;;;;;5075527;28;20219;-83
2021/07/09 08:09:52;;;;;;;8.15;7.40;;;28.40;99.90;;;;;;5055787;28;20174;-82
2021/07/09 08:12:17;;;;;;;11.23;7.75;;;27.70;99.90;;;;;;5074849;28;20247;-83
2021/07/09 08:14:43;;;;;;;8.20;7.60;;;27.00;99.90;;;;;;5083919;28;20202;-83
2021/07/09 08:17:09;;;;;;;8.00;7.22;;;26.40;99.90;;;;;;5075418;28;20208;-84
2021/07/09 08:19:34;;;;;;;8.98;6.63;;;25.90;99.90;;;;;;5073684;28;20209;-83
2021/07/09 08:22:00;;;;;;;8.23;6.15;;;25.70;99.90;;;;;;5075276;28;20686;-83
2021/07/09 08:24:26;;;;;;;7.97;7.20;;;26.00;99.90;;;;;;5058561;28;20169;-81
2021/07/09 08:26:52;;;;;;;6.20;5.53;;;26.30;99.90;;;;;;5075208;28;20181;-81
2021/07/09 08:29:18;;;;;;;6.10;5.22;;;27.90;99.90;;;;;;5085669;28;20209;-82
2021/07/09 08:31:43;;;;;;;6.50;5.15;;;28.80;99.90;;;;;;5072833;28;20182;-82
2021/07/09 08:34:09;;;;;;;6.03;5.53;;;29.30;99.90;;;;;;5072702;28;20201;-84
2021/07/09 08:36:35;;;;;;;6.13;5.63;;;28.40;99.90;;;;;;5038552;28;20174;-83
2021/07/09 08:39:01;;;;;;;10.43;5.25;;;27.40;99.90;;;;;;5072933;28;20710;-83
2021/07/09 08:41:26;;;;;;;5.95;5.45;;;26.70;99.90;;;;;;5074752;28;20196;-82
2021/07/09 08:43:52;;;;;;;7.53;5.28;;;25.90;99.90;;;;;;5058779;28;20617;-82
2021/07/09 08:46:18;;;;;;;5.60;4.97;;;25.90;99.90;;;;;;5025680;28;20174;-82
2021/07/09 08:48:44;;;;;;;6.15;4.60;;;25.90;99.90;;;;;;5078457;28;20652;-83
2021/07/09 08:51:10;;;;;;;11.32;5.55;;;26.00;99.90;;;;;;5079030;28;20210;-83
2021/07/09 08:53:38;;;;;;;6.28;5.18;;;26.00;99.90;;;;;;5096847;28;20215;-82
2021/07/09 08:56:05;;;;;;;5.57;5.07;;;25.30;99.90;;;;;;5079029;28;20257;-83
2021/07/09 08:58:31;;;;;;;6.07;4.95;;;25.00;99.90;;;;;;5078087;28;20205;-82
2021/07/09 09:00:57;;;;;;;6.50;5.68;;;24.60;99.90;;;;;;5096810;28;20170;-81
2021/07/09 09:03:27;;;;;;;6.55;5.95;;;24.50;99.90;;;;;;5083553;28;20528;-82
2021/07/09 09:06:00;;;;;;;7.25;6.60;;;24.40;99.90;;;;;;5076402;28;20254;-80
2021/07/09 09:08:27;;;;;;;6.88;6.22;;;24.20;99.90;;;;;;5058334;28;20701;-80
2021/07/09 09:10:58;;;;;;;10.38;7.35;;;24.20;99.90;;;;;;5058176;28;20162;-81
2021/07/09 09:13:26;;;;;;;9.80;8.90;;;24.30;99.90;;;;;;5069403;28;20171;-81
2021/07/09 09:16:09;;;;;;;10.50;9.55;;;24.20;99.90;;;;;;5096130;28;20530;-83
2021/07/09 09:18:55;;;;;;;9.63;8.85;;;24.00;99.90;;;;;;5095506;28;20189;-81
2021/07/09 09:21:23;;;;;;;13.20;9.35;;;24.10;99.90;;;;;;5058163;28;20179;-80
2021/07/09 09:23:51;;;;;;;9.65;8.75;;;24.20;99.90;;;;;;5041938;28;20233;-80
2021/07/09 09:26:44;;;;;;;8.50;7.80;;;24.30;99.90;;;;;;5094267;28;20178;-81
2021/07/09 09:29:31;;;;;;;9.73;7.97;;;24.30;99.90;;;;;;5076861;28;20179;-81
2021/07/09 09:32:02;;;;;;;9.70;8.80;;;24.10;99.90;;;;;;5076148;28;20147;-82
2021/07/09 09:34:48;;;;;;;9.60;8.07;;;24.00;99.90;;;;;;5075670;28;20174;-82
2021/07/09 09:37:18;;;;;;;8.15;7.45;;;23.70;99.90;;;;;;5058174;28;20201;-82
2021/07/09 09:39:46;;;;;;;9.65;8.35;;;23.30;99.90;;;;;;5075528;28;20195;-82
2021/07/09 09:42:18;;;;;;;8.10;7.40;;;23.10;99.90;;;;;;5041054;28;20174;-82
2021/07/09 09:44:51;;;;;;;10.90;8.73;;;22.80;99.90;;;;;;5057642;28;20730;-81
2021/07/09 09:47:18;;;;;;;9.25;8.35;;;23.00;99.90;;;;;;5075398;28;20178;-81
2021/07/09 09:49:49;;;;;;;8.63;7.82;;;23.10;99.90;;;;;;5047850;28;20690;-81
2021/07/09 09:52:41;;;;;;;8.27;7.43;;;23.50;99.90;;;;;;5056937;28;20179;-81
2021/07/09 09:55:15;;;;;;;7.43;6.75;;;23.80;99.90;;;;;;5057298;28;20463;-81
2021/07/09 09:57:43;;;;;;;8.30;6.93;;;24.00;99.90;;;;;;5057221;28;20297;-82
2021/07/09 10:00:25;;;;;;;8.60;7.40;;;24.10;99.90;;;;;;5075442;28;20174;-81
2021/07/09 10:02:51;;;;;;;8.27;7.60;;;24.20;99.90;;;;;;5075834;28;20174;-81
2021/07/09 10:05:17;;;;;;;8.50;7.70;;;24.00;99.90;;;;;;5040583;28;20171;-81
2021/07/09 10:07:45;;;;;;;8.35;7.60;;;23.70;99.90;;;;;;5056887;28;20682;-84
2021/07/09 10:10:12;;;;;;;9.75;7.65;;;23.30;99.90;;;;;;5085141;28;20710;-84
2021/07/09 10:12:41;;;;;;;12.93;7.78;;;23.00;99.90;;;;;;5074987;28;20198;-85
2021/07/09 10:15:07;;;;;;;10.43;7.57;;;23.50;99.90;;;;;;5074849;28;20163;-84
2021/07/09 10:17:34;;;;;;;9.45;7.72;;;23.90;99.90;;;;;;5057090;28;20703;-83
2021/07/09 10:20:03;;;;;;;16.92;8.73;;;24.00;99.90;;;;;;5059131;28;20375;-82
2021/07/09 10:22:28;;;;;;;9.30;8.43;;;23.70;99.90;;;;;;5074643;28;20264;-87
2021/07/09 10:24:55;;;;;;;9.57;8.57;;;23.40;99.90;;;;;;5059608;28;20267;-81
2021/07/09 10:27:25;;;;;;;8.73;7.80;;;23.20;99.90;;;;;;5094961;28;20174;-84
2021/07/09 10:29:53;;;;;;;8.40;7.63;;;23.40;99.90;;;;;;5077337;28;20205;-85
2021/07/09 10:32:36;;;;;;;11.35;9.18;;;24.00;99.90;;;;;;5094140;28;20170;-86
2021/07/09 10:35:04;;;;;;;9.57;8.63;;;24.50;99.90;;;;;;5056635;28;20175;-80
2021/07/09 10:37:30;;;;;;;11.02;8.43;;;24.60;99.90;;;;;;5063405;28;20194;-84
2021/07/09 10:40:23;;;;;;;9.90;7.97;;;25.30;99.90;;;;;;5065408;28;20266;-84
2021/07/09 10:42:51;;;;;;;8.65;7.85;;;26.30;99.90;;;;;;5056476;28;20678;-81
2021/07/09 10:45:28;;;;;;;8.82;7.38;;;26.60;99.90;;;;;;5040598;28;20171;-85
2021/07/09 10:48:09;;;;;;;7.43;6.72;;;26.80;99.90;;;;;;5080396;28;20690;-83
2021/07/09 10:50:34;;;;;;;7.55;6.75;;;26.80;99.90;;;;;;5075752;28;20506;-85
2021/07/09 10:53:13;;;;;;;8.70;7.88;;;26.70;99.90;;;;;;5094793;28;20169;-87
2021/07/09 10:55:47;;;;;;;8.65;7.47;;;26.60;99.90;;;;;;5094506;28;20169;-86
2021/07/09 10:58:17;;;;;;;9.45;8.63;;;26.20;99.90;;;;;;5071925;28;20194;-86
2021/07/09 11:00:47;;;;;;;10.20;8.70;;;25.30;99.90;;;;;;5074767;28;20163;-87
2021/07/09 11:03:26;;;;;;;10.82;10.02;;;24.60;99.90;;;;;;5055686;28;20178;-82
2021/07/09 11:05:54;;;;;;;11.07;9.88;;;24.20;99.90;;;;;;5074352;28;20170;-87
2021/07/09 11:08:31;;;;;;;22.65;10.50;;;23.80;99.90;;;;;;5061220;28;20173;-84
2021/07/09 11:10:58;;;;;;;13.80;12.45;;;23.50;99.90;;;;;;5075836;28;20694;-84
2021/07/09 11:13:42;;;;;;;14.02;12.55;;;23.00;99.90;;;;;;5094733;28;20162;-88
2021/07/09 11:16:30;;;;;;;18.42;12.73;;;22.60;99.90;;;;;;5077687;28;20175;-87
2021/07/09 11:19:07;;;;;;;12.70;11.43;;;22.70;99.90;;;;;;5056928;28;20266;-87
2021/07/09 11:21:33;;;;;;;15.38;12.30;;;22.90;99.90;;;;;;5056952;28;20170;-86
2021/07/09 11:24:02;;;;;;;23.67;11.90;;;23.20;99.90;;;;;;5074202;28;20245;-87
2021/07/09 11:26:52;;;;;;;12.80;11.35;;;23.30;99.90;;;;;;5057588;28;20170;-82
2021/07/09 11:29:29;;;;;;;13.45;11.15;;;23.30;99.90;;;;;;5061526;28;20190;-86
2021/07/09 11:31:59;;;;;;;14.90;11.32;;;23.30;99.90;;;;;;5074008;28;20188;-85
2021/07/09 11:34:27;;;;;;;12.65;11.35;;;23.10;99.90;;;;;;5055958;28;20162;-85
2021/07/09 11:36:59;;;;;;;12.60;10.77;;;23.00;99.90;;;;;;5088970;28;20173;-85
2021/07/09 11:39:31;;;;;;;14.52;11.20;;;23.10;99.90;;;;;;5093034;28;20189;-85
2021/07/09 11:42:02;;;;;;;16.73;11.55;;;23.10;99.90;;;;;;5093875;28;20504;-85
2021/07/09 11:44:52;;;;;;;13.43;12.02;;;23.40;99.90;;;;;;5093848;28;20162;-85
2021/07/09 11:47:23;;;;;;;18.73;10.55;;;23.80;99.90;;;;;;5059853;28;20718;-85
2021/07/09 11:49:52;;;;;;;11.15;8.73;;;24.20;99.90;;;;;;5076834;28;20201;-82
2021/07/09 11:52:27;;;;;;;9.82;8.82;;;24.40;99.90;;;;;;5055428;28;20249;-84
2021/07/09 11:54:55;;;;;;;10.63;8.88;;;24.80;99.90;;;;;;5073709;28;20170;-83
2021/07/09 11:57:26;;;;;;;10.82;8.18;;;25.00;99.90;;;;;;5078917;28;20690;-84
2021/07/09 11:59:54;;;;;;;9.50;8.60;;;25.00;99.90;;;;;;5084690;28;20190;-86
2021/07/09 12:02:21;;;;;;;9.73;8.77;;;24.70;99.90;;;;;;5066467;28;20260;-85
2021/07/09 12:04:48;;;;;;;10.32;8.95;;;24.30;99.90;;;;;;5074824;28;20178;-85
2021/07/09 12:07:22;;;;;;;11.10;8.70;;;23.90;99.90;;;;;;5073413;28;20159;-85
2021/07/09 12:10:08;;;;;;;9.38;8.43;;;24.10;99.90;;;;;;5073453;28;20167;-85
2021/07/09 12:12:42;;;;;;;8.63;7.95;;;24.50;99.90;;;;;;5073256;28;20166;-84
2021/07/09 12:15:11;;;;;;;9.90;7.78;;;24.60;99.90;;;;;;5073213;28;20182;-85
2021/07/09 12:17:48;;;;;;;14.30;9.02;;;24.90;99.90;;;;;;5077145;28;20169;-84
2021/07/09 12:20:25;;;;;;;11.10;9.80;;;25.00;99.90;;;;;;5076535;28;20254;-84
2021/07/09 12:22:52;;;;;;;10.13;9.10;;;25.10;99.90;;;;;;5083864;28;20213;-84
2021/07/09 12:25:25;;;;;;;8.65;7.85;;;25.50;99.90;;;;;;5077347;28;20162;-84
2021/07/09 12:27:53;;;;;;;8.35;7.07;;;26.20;99.90;;;;;;5077429;28;20182;-85
2021/07/09 12:30:22;;;;;;;8.18;7.05;;;26.90;99.90;;;;;;5078290;28;20171;-85
2021/07/09 12:32:54;;;;;;;12.38;7.57;;;27.50;99.90;;;;;;5077339;28;20167;-84
2021/07/09 12:35:21;;;;;;;8.15;7.32;;;27.00;99.90;;;;;;5077106;28;20169;-84
2021/07/09 12:38:00;;;;;;;8.23;7.18;;;26.80;99.90;;;;;;5059268;28;20232;-84
2021/07/09 12:40:37;;;;;;;7.70;7.00;;;27.10;99.90;;;;;;5062245;28;20219;-84
2021/07/09 12:43:13;;;;;;;9.60;7.30;;;27.30;99.90;;;;;;5079044;28;20204;-84
2021/07/09 12:45:39;;;;;;;9.63;8.00;;;27.40;99.90;;;;;;5078972;28;20162;-84
2021/07/09 12:48:06;;;;;;;9.38;8.48;;;27.30;99.90;;;;;;5096211;28;20174;-86